createdAt,value
2019-02-20T00:12:00.444Z,4.47
2019-02-20T00:35:24.832Z,4.04
2019-02-20T00:53:46.797Z,4.34
2019-02-20T01:34:32.439Z,4.10
2019-02-20T01:39:43.692Z,4.03
2019-02-20T01:44:52.961Z,4.08
2019-02-20T01:50:02.636Z,4.00
2019-02-20T01:55:07.539Z,3.98
2019-02-20T02:00:16.209Z,3.99
2019-02-20T02:05:26.979Z,4.00
2019-02-20T02:10:42.363Z,3.93
2019-02-20T02:15:40.975Z,3.89
2019-02-20T02:20:43.659Z,3.95
2019-02-20T02:25:48.428Z,3.76
2019-02-20T02:30:55.806Z,3.71
2019-02-20T02:36:12.102Z,3.66
2019-02-20T02:41:15.660Z,3.53
2019-02-20T02:46:24.169Z,3.59
2019-02-20T02:51:32.016Z,3.44
2019-02-20T02:56:34.854Z,3.41
2019-02-20T03:01:41.184Z,3.51
2019-02-20T03:06:43.793Z,3.46
2019-02-20T03:11:50.006Z,3.25
2019-02-20T03:17:01.979Z,3.31
2019-02-20T03:22:06.567Z,3.25
2019-02-20T03:27:09.359Z,3.36
2019-02-20T03:32:17.125Z,3.28
2019-02-20T03:37:22.434Z,3.25
2019-02-20T03:42:31.277Z,3.16
2019-02-20T03:47:34.633Z,3.21
2019-02-20T03:52:46.107Z,3.19
2019-02-20T03:57:51.869Z,3.16
2019-02-20T04:02:55.933Z,3.15
2019-02-20T04:08:05.563Z,3.11
2019-02-20T04:13:17.513Z,2.72
2019-02-20T04:18:20.187Z,3.03
2019-02-20T04:23:26.199Z,2.96
2019-02-20T04:28:28.535Z,3.05
2019-02-20T04:33:31.073Z,3.02
2019-02-20T04:38:34.447Z,3.02
2019-02-20T04:43:49.061Z,3.03
2019-02-20T04:50:09.633Z,2.98
2019-02-20T05:02:10.992Z,2.03
2019-02-20T05:13:48.912Z,3.03
2019-02-20T05:19:16.660Z,2.93
2019-02-20T05:24:24.725Z,2.94
2019-02-20T05:29:23.481Z,3.05
2019-02-20T05:34:36.709Z,2.97
2019-02-20T05:39:47.313Z,2.87
2019-02-20T05:44:53.262Z,2.94
2019-02-20T05:51:01.369Z,3.01
2019-02-20T05:56:13.019Z,2.94
2019-02-20T06:01:31.692Z,3.02
2019-02-20T06:07:21.317Z,3.03
2019-02-20T06:12:54.466Z,2.84
2019-02-20T06:18:27.529Z,2.82
2019-02-20T06:23:50.732Z,2.78
2019-02-20T06:29:47.080Z,2.80
2019-02-20T06:41:50.655Z,2.76
2019-02-20T06:46:53.459Z,2.85
2019-02-20T06:51:56.278Z,2.89
2019-02-20T06:56:59.485Z,3.07
2019-02-20T07:02:02.777Z,3.17
2019-02-20T07:19:16.759Z,3.07
2019-02-20T07:25:18.569Z,3.20
2019-02-20T07:43:42.518Z,3.45
2019-02-20T07:49:34.268Z,3.51
2019-02-20T07:56:03.610Z,3.60
2019-02-20T08:02:57.334Z,3.55
2019-02-20T08:12:56.266Z,3.62
2019-02-20T08:37:11.052Z,3.68
2019-02-20T08:43:03.298Z,3.98
2019-02-20T08:48:36.620Z,3.96
2019-02-20T11:30:08.090Z,8.15
2019-02-20T11:35:30.140Z,8.44
2019-02-20T14:20:54.960Z,10.97
2019-02-20T16:37:12.205Z,9.71
